createdAt,value
2022-08-26T00:00:21.677Z,4.60
2022-08-26T00:02:51.691Z,3.20
2022-08-26T00:05:25.412Z,4.50
2022-08-26T00:08:07.816Z,4.10
2022-08-26T00:10:44.526Z,3.90
2022-08-26T00:13:21.532Z,4.00
2022-08-26T00:15:59.676Z,4.30
2022-08-26T00:18:40.782Z,4.10
2022-08-26T00:21:11.484Z,4.60
2022-08-26T00:23:59.759Z,4.90
2022-08-26T00:26:40.204Z,3.90
2022-08-26T00:29:11.693Z,3.50
2022-08-26T00:31:45.199Z,4.40
2022-08-26T00:34:21.790Z,4.00
2022-08-26T00:37:09.015Z,3.80
2022-08-26T00:39:38.415Z,3.70
2022-08-26T00:42:08.712Z,3.90
2022-08-26T00:44:36.523Z,4.30
2022-08-26T00:47:09.191Z,4.50
2022-08-26T00:49:47.529Z,4.40
2022-08-26T00:52:30.745Z,3.50
2022-08-26T00:55:09.264Z,3.80
2022-08-26T00:57:42.611Z,3.90
2022-08-26T01:00:17.121Z,3.60
2022-08-26T01:02:48.029Z,3.80
2022-08-26T01:05:17.438Z,4.00
2022-08-26T01:07:47.288Z,3.80
2022-08-26T01:10:36.114Z,3.60
2022-08-26T01:13:10.362Z,3.80
2022-08-26T01:15:46.846Z,4.40
2022-08-26T01:18:14.788Z,3.50
2022-08-26T01:20:46.628Z,3.90
2022-08-26T01:23:15.209Z,4.00
2022-08-26T01:25:45.859Z,4.00
2022-08-26T01:28:18.993Z,4.00
2022-08-26T01:30:51.051Z,4.30
2022-08-26T01:33:26.980Z,3.80
2022-08-26T01:35:57.154Z,4.00
2022-08-26T01:38:28.047Z,4.50
2022-08-26T01:41:02.809Z,3.30
2022-08-26T01:43:44.869Z,3.60
2022-08-26T01:46:12.648Z,3.90
2022-08-26T01:48:42.955Z,4.20
2022-08-26T01:51:11.119Z,3.70
2022-08-26T01:53:41.760Z,4.20
2022-08-26T01:56:18.915Z,4.70
2022-08-26T01:59:03.616Z,4.80
2022-08-26T02:01:34.941Z,4.30
2022-08-26T02:04:12.002Z,3.70
2022-08-26T02:06:45.066Z,4.00
2022-08-26T02:09:41.130Z,4.40
2022-08-26T02:12:13.384Z,4.60
2022-08-26T02:15:13.543Z,4.70
2022-08-26T02:17:43.604Z,4.90
2022-08-26T02:20:16.479Z,4.50
2022-08-26T02:22:52.033Z,4.40
2022-08-26T02:25:47.958Z,4.30
2022-08-26T02:28:26.786Z,4.30
2022-08-26T02:30:55.617Z,4.40
2022-08-26T02:33:32.231Z,4.60
2022-08-26T02:36:02.967Z,4.00
2022-08-26T02:39:01.729Z,4.50
2022-08-26T02:41:29.627Z,4.60
2022-08-26T02:46:37.627Z,4.20
2022-08-26T02:49:20.123Z,3.50
2022-08-26T02:51:49.737Z,3.60
2022-08-26T02:54:21.474Z,4.00
2022-08-26T02:59:16.698Z,3.70
2022-08-26T03:01:51.061Z,3.90
2022-08-26T03:04:18.961Z,3.70
2022-08-26T03:06:52.886Z,4.70
2022-08-26T03:09:58.185Z,4.50
2022-08-26T03:12:25.875Z,3.90
2022-08-26T03:14:58.329Z,4.10
2022-08-26T03:17:26.960Z,4.60
2022-08-26T03:20:17.479Z,5.00
2022-08-26T03:22:48.807Z,4.10
2022-08-26T03:25:19.687Z,4.40
2022-08-26T03:27:50.020Z,4.40
2022-08-26T03:30:39.277Z,5.00
2022-08-26T03:33:18.098Z,3.40
2022-08-26T03:35:50.704Z,3.90
2022-08-26T03:38:28.576Z,4.00
2022-08-26T03:41:00.744Z,3.90
2022-08-26T03:43:52.031Z,4.50
2022-08-26T03:46:21.041Z,4.20
2022-08-26T03:48:53.732Z,4.60
2022-08-26T03:51:24.714Z,4.30
2022-08-26T03:53:55.336Z,4.50
2022-08-26T03:56:30.828Z,3.50
2022-08-26T03:59:02.487Z,5.00
2022-08-26T04:01:47.355Z,4.30
2022-08-26T04:04:24.683Z,3.70
2022-08-26T04:06:56.732Z,4.30
2022-08-26T04:09:27.687Z,4.50
2022-08-26T04:11:58.998Z,4.00
2022-08-26T04:15:19.852Z,4.50
2022-08-26T04:18:38.102Z,4.20
2022-08-26T04:22:36.167Z,4.40
2022-08-26T04:26:34.510Z,4.80
2022-08-26T04:30:10.833Z,4.60
2022-08-26T04:33:12.884Z,4.70
2022-08-26T04:35:50.144Z,4.20
2022-08-26T04:38:53.423Z,4.90
2022-08-26T04:41:34.956Z,4.80
2022-08-26T04:44:25.851Z,4.00
2022-08-26T04:47:07.961Z,3.80
2022-08-26T04:49:53.575Z,4.40
2022-08-26T04:52:48.235Z,4.50
2022-08-26T04:55:22.036Z,4.90
2022-08-26T04:58:13.357Z,5.40
2022-08-26T05:00:50.114Z,5.10
2022-08-26T05:03:31.186Z,4.40
2022-08-26T05:06:31.449Z,4.70
2022-08-26T05:09:21.835Z,4.70
2022-08-26T05:12:07.815Z,5.00
2022-08-26T05:14:53.574Z,4.80
2022-08-26T05:17:29.971Z,4.20
2022-08-26T05:20:04.082Z,4.30
2022-08-26T05:22:31.790Z,4.50
2022-08-26T05:24:59.582Z,4.40
2022-08-26T05:27:57.104Z,4.20
2022-08-26T05:30:33.330Z,4.10
2022-08-26T05:33:07.586Z,4.60
2022-08-26T05:36:00.341Z,4.40
2022-08-26T05:38:30.365Z,4.40
2022-08-26T05:41:01.079Z,4.20
2022-08-26T05:43:35.320Z,4.50
2022-08-26T05:46:07.086Z,4.40
2022-08-26T05:48:41.175Z,4.00
2022-08-26T05:51:17.300Z,5.10
2022-08-26T05:53:54.761Z,4.00
2022-08-26T05:56:38.937Z,4.00
2022-08-26T05:59:14.613Z,3.80
2022-08-26T06:01:50.213Z,4.50
2022-08-26T06:04:29.322Z,4.10
2022-08-26T06:07:03.389Z,4.60
2022-08-26T06:09:50.931Z,4.10
2022-08-26T06:12:25.428Z,5.20
2022-08-26T06:14:57.780Z,4.10
2022-08-26T06:17:31.326Z,4.00
2022-08-26T06:20:04.931Z,4.20
2022-08-26T06:23:03.243Z,4.50
2022-08-26T06:25:42.098Z,4.70
2022-08-26T06:28:10.904Z,4.00
2022-08-26T06:30:43.381Z,5.00
2022-08-26T06:33:12.126Z,4.30
2022-08-26T06:35:54.565Z,4.40
2022-08-26T06:38:44.575Z,3.90
2022-08-26T06:41:22.828Z,5.30
2022-08-26T06:43:53.559Z,4.50
2022-08-26T06:46:24.442Z,4.30
2022-08-26T06:48:54.233Z,4.50
2022-08-26T06:51:29.878Z,4.00
2022-08-26T06:54:23.888Z,4.60
2022-08-26T06:56:51.718Z,4.30
2022-08-26T06:59:22.452Z,4.70
2022-08-26T07:02:10.201Z,4.60
2022-08-26T07:04:44.271Z,6.00
2022-08-26T07:07:22.016Z,4.60
2022-08-26T07:10:15.167Z,4.60
2022-08-26T07:12:47.288Z,4.40
2022-08-26T07:15:17.061Z,5.70
2022-08-26T07:17:44.993Z,4.70
2022-08-26T07:20:12.593Z,4.00
2022-08-26T07:22:45.574Z,4.70
2022-08-26T07:25:13.207Z,4.70
2022-08-26T07:27:43.664Z,4.30
2022-08-26T07:30:16.317Z,4.80
2022-08-26T07:32:46.990Z,4.60
2022-08-26T07:35:14.506Z,4.50
2022-08-26T07:37:47.432Z,4.10
2022-08-26T07:40:26.130Z,4.00
2022-08-26T07:42:56.315Z,5.00
2022-08-26T07:45:24.171Z,5.10
2022-08-26T07:48:00.519Z,4.70
2022-08-26T07:50:49.403Z,4.40
2022-08-26T07:53:18.236Z,4.90
2022-08-26T07:55:49.499Z,4.80
2022-08-26T07:58:17.818Z,4.40
2022-08-26T08:00:48.284Z,4.70
2022-08-26T08:03:21.240Z,4.90
2022-08-26T08:06:02.964Z,4.70
2022-08-26T08:08:35.395Z,4.60
2022-08-26T08:11:02.808Z,4.80
2022-08-26T08:13:31.970Z,4.70
2022-08-26T08:16:01.782Z,5.00
2022-08-26T08:18:32.133Z,5.10
2022-08-26T08:21:21.368Z,4.50
2022-08-26T08:23:57.561Z,4.90
2022-08-26T08:26:41.532Z,4.60
2022-08-26T08:29:12.438Z,5.60
2022-08-26T08:31:59.862Z,4.90
2022-08-26T08:34:33.302Z,4.70
2022-08-26T08:37:04.397Z,4.90
2022-08-26T08:39:38.532Z,5.30
2022-08-26T08:42:30.923Z,5.20
2022-08-26T08:45:06.691Z,4.50
2022-08-26T08:47:56.506Z,4.20
2022-08-26T08:50:38.056Z,4.20
2022-08-26T08:53:25.278Z,5.40
2022-08-26T08:56:10.766Z,4.20
2022-08-26T08:59:01.743Z,4.90
2022-08-26T09:02:04.859Z,4.40
2022-08-26T09:05:21.968Z,4.00
2022-08-26T09:08:14.836Z,4.40
2022-08-26T09:10:59.625Z,3.80
2022-08-26T09:13:27.572Z,3.80
2022-08-26T09:16:16.250Z,3.60
2022-08-26T09:19:22.866Z,4.60
2022-08-26T09:21:58.842Z,3.40
2022-08-26T09:24:29.071Z,4.40
2022-08-26T09:26:58.346Z,4.10
2022-08-26T09:29:45.709Z,4.80
2022-08-26T09:32:24.993Z,4.20
2022-08-26T09:34:58.129Z,3.70
2022-08-26T09:40:16.455Z,3.90
2022-08-26T09:43:11.023Z,4.00
2022-08-26T09:45:49.923Z,4.20
2022-08-26T09:48:43.647Z,4.50
2022-08-26T09:51:50.110Z,3.60
2022-08-26T09:54:25.180Z,3.70
2022-08-26T09:57:23.689Z,4.70
2022-08-26T09:59:57.398Z,4.50
2022-08-26T10:02:34.268Z,4.30
2022-08-26T10:05:09.528Z,3.80
2022-08-26T10:08:03.635Z,3.80
2022-08-26T10:10:38.413Z,4.10
2022-08-26T10:13:14.302Z,11.30
2022-08-26T10:15:49.994Z,4.10
2022-08-26T10:18:27.908Z,3.50
2022-08-26T10:21:09.967Z,4.10
2022-08-26T10:26:26.993Z,3.60
2022-08-26T10:29:01.582Z,4.20
2022-08-26T10:31:38.178Z,4.30
2022-08-26T10:34:08.990Z,3.60
2022-08-26T10:37:14.473Z,4.60
2022-08-26T10:39:46.169Z,3.40
2022-08-26T10:42:38.110Z,3.10
2022-08-26T10:45:22.293Z,3.30
2022-08-26T10:48:01.641Z,3.50
2022-08-26T10:50:47.487Z,3.70
2022-08-26T10:53:18.250Z,4.00
2022-08-26T10:56:00.518Z,4.00
2022-08-26T10:58:56.698Z,3.50
2022-08-26T11:01:59.399Z,3.20
2022-08-26T11:04:38.983Z,3.70
2022-08-26T11:07:36.818Z,3.50
2022-08-26T11:10:14.404Z,3.70
2022-08-26T11:12:49.601Z,4.50
2022-08-26T11:15:24.658Z,3.70
2022-08-26T11:17:52.009Z,3.10
2022-08-26T11:20:31.753Z,3.60
2022-08-26T11:23:14.566Z,4.20
2022-08-26T11:26:08.681Z,3.80
2022-08-26T11:28:40.018Z,3.40
2022-08-26T11:31:33.301Z,3.80
2022-08-26T11:34:07.208Z,3.40
2022-08-26T11:36:40.306Z,3.80
2022-08-26T11:39:36.528Z,3.40
2022-08-26T11:42:29.653Z,3.20
2022-08-26T11:44:58.102Z,3.20
2022-08-26T11:47:29.438Z,3.40
2022-08-26T11:50:08.533Z,3.40
2022-08-26T11:52:35.753Z,3.30
2022-08-26T11:55:12.268Z,3.30
2022-08-26T11:57:48.196Z,3.60
2022-08-26T12:00:26.029Z,3.60
2022-08-26T12:02:56.137Z,3.40
2022-08-26T12:05:31.183Z,3.00
2022-08-26T12:08:01.135Z,3.80
2022-08-26T12:10:33.818Z,3.60
2022-08-26T12:13:04.913Z,3.50
2022-08-26T12:15:33.201Z,3.80
2022-08-26T12:18:28.846Z,4.00
2022-08-26T12:21:24.297Z,3.60
2022-08-26T12:23:57.368Z,4.10
2022-08-26T12:26:32.460Z,2.70
2022-08-26T12:29:10.845Z,4.40
2022-08-26T12:31:48.918Z,4.10
2022-08-26T12:34:28.183Z,4.30
2022-08-26T12:37:02.830Z,4.80
2022-08-26T12:39:37.419Z,3.50
2022-08-26T12:42:25.032Z,3.70
2022-08-26T12:44:59.736Z,3.50
2022-08-26T12:47:44.494Z,3.40
2022-08-26T12:50:23.077Z,3.40
2022-08-26T12:53:04.231Z,3.90
2022-08-26T12:55:44.074Z,3.70
2022-08-26T12:58:20.671Z,3.60
2022-08-26T13:01:22.441Z,3.50
2022-08-26T13:03:50.515Z,3.40
2022-08-26T13:06:23.214Z,3.60
2022-08-26T13:09:00.097Z,3.50
2022-08-26T13:11:42.978Z,3.90
2022-08-26T13:14:21.263Z,3.00
2022-08-26T13:16:54.337Z,3.30
2022-08-26T13:19:40.519Z,3.40
2022-08-26T13:22:07.852Z,4.30
2022-08-26T13:24:42.123Z,3.60
2022-08-26T13:27:13.520Z,4.30
2022-08-26T13:29:47.680Z,3.80
2022-08-26T13:32:15.232Z,3.70
2022-08-26T13:34:42.545Z,3.50
2022-08-26T13:37:09.747Z,3.40
2022-08-26T13:39:39.467Z,3.80
2022-08-26T13:42:07.248Z,3.40
2022-08-26T13:44:35.006Z,3.40
2022-08-26T13:47:02.319Z,3.60
2022-08-26T13:49:30.205Z,3.70
2022-08-26T13:51:59.898Z,3.50
2022-08-26T13:54:27.808Z,6.10
2022-08-26T13:56:58.346Z,4.10
2022-08-26T13:59:26.129Z,3.90
2022-08-26T14:02:13.914Z,3.90
2022-08-26T14:04:43.643Z,3.30
2022-08-26T14:07:14.935Z,4.00
2022-08-26T14:09:44.662Z,3.50
2022-08-26T14:12:12.152Z,3.60
2022-08-26T14:14:40.000Z,4.10
2022-08-26T14:17:07.690Z,3.80
2022-08-26T14:19:45.600Z,3.90
2022-08-26T14:22:14.554Z,3.40
2022-08-26T14:24:42.094Z,8.10
2022-08-26T14:27:10.168Z,3.70
2022-08-26T14:29:38.154Z,3.70
2022-08-26T14:32:12.296Z,4.10
2022-08-26T14:34:43.869Z,3.90
2022-08-26T14:37:17.995Z,3.60
2022-08-26T14:40:22.834Z,3.40
2022-08-26T14:43:02.569Z,3.70
2022-08-26T14:48:13.459Z,4.10
2022-08-26T14:50:56.668Z,4.40
2022-08-26T14:53:42.420Z,3.60
2022-08-26T14:56:13.695Z,3.60
2022-08-26T14:58:44.139Z,3.70
2022-08-26T15:01:13.066Z,3.90
2022-08-26T15:03:49.367Z,4.30
2022-08-26T15:06:16.542Z,4.70
2022-08-26T15:08:46.361Z,5.30
2022-08-26T15:11:13.539Z,4.70
2022-08-26T15:13:49.871Z,4.60
2022-08-26T15:16:30.872Z,4.30
2022-08-26T15:19:04.786Z,4.50
2022-08-26T15:21:37.406Z,4.50
2022-08-26T15:24:22.963Z,4.50
2022-08-26T15:26:52.516Z,4.20
2022-08-26T15:29:20.917Z,4.20
2022-08-26T15:31:48.807Z,4.20
2022-08-26T15:34:19.306Z,4.20
2022-08-26T15:36:50.890Z,4.30
2022-08-26T15:39:19.178Z,4.50
2022-08-26T15:41:46.851Z,5.60
2022-08-26T15:44:26.696Z,5.50
2022-08-26T15:46:58.393Z,5.40
2022-08-26T15:49:26.520Z,6.60
2022-08-26T15:51:57.438Z,6.40
2022-08-26T15:54:25.180Z,7.00
2022-08-26T15:56:53.872Z,7.10
2022-08-26T15:59:23.396Z,7.50
2022-08-26T16:02:01.879Z,8.40
2022-08-26T16:04:33.747Z,6.90
2022-08-26T16:07:01.234Z,7.50
2022-08-26T16:09:30.759Z,8.00
2022-08-26T16:11:58.918Z,8.70
2022-08-26T16:14:26.416Z,8.30
2022-08-26T16:16:53.914Z,11.40
2022-08-26T16:19:23.625Z,12.50
2022-08-26T16:21:54.390Z,13.80
2022-08-26T16:24:30.539Z,12.30
2022-08-26T16:27:23.061Z,11.00
2022-08-26T16:29:53.751Z,9.40
2022-08-26T16:32:29.449Z,7.20
2022-08-26T16:35:03.480Z,5.80
2022-08-26T16:37:32.499Z,7.90
2022-08-26T16:40:35.637Z,11.60
2022-08-26T16:43:33.860Z,10.50
2022-08-26T16:46:15.042Z,13.30
2022-08-26T16:48:43.447Z,15.30
2022-08-26T16:51:17.590Z,14.10
2022-08-26T16:53:45.656Z,13.50
2022-08-26T16:56:14.285Z,12.00
2022-08-26T16:58:41.867Z,13.20
2022-08-26T17:01:09.588Z,13.30
2022-08-26T17:03:37.395Z,13.00
2022-08-26T17:06:05.554Z,13.10
2022-08-26T17:08:42.023Z,13.10
2022-08-26T17:11:10.067Z,12.80
2022-08-26T17:13:39.319Z,13.40
2022-08-26T17:16:15.782Z,13.60
2022-08-26T17:18:47.355Z,13.20
2022-08-26T17:21:31.151Z,14.30
2022-08-26T17:24:12.050Z,14.40
2022-08-26T17:26:44.298Z,15.10
2022-08-26T17:30:10.544Z,13.70
2022-08-26T17:32:38.270Z,13.60
2022-08-26T17:35:13.040Z,12.80
2022-08-26T17:38:00.787Z,13.60
2022-08-26T17:40:31.854Z,13.00
2022-08-26T17:42:59.923Z,14.30
2022-08-26T17:45:33.036Z,14.20
2022-08-26T17:48:03.017Z,19.90
2022-08-26T17:50:36.856Z,20.20
2022-08-26T17:53:05.046Z,19.70
2022-08-26T17:55:32.678Z,18.50
2022-08-26T17:58:00.507Z,14.20
2022-08-26T18:00:41.253Z,14.20
2022-08-26T18:03:11.821Z,13.50
2022-08-26T18:05:40.247Z,15.90
2022-08-26T18:08:07.673Z,14.00
2022-08-26T18:10:35.167Z,13.00
2022-08-26T18:13:02.371Z,13.10
2022-08-26T18:15:40.088Z,12.80
2022-08-26T18:18:07.763Z,12.00
2022-08-26T18:20:39.299Z,12.50
2022-08-26T18:23:15.898Z,12.00
2022-08-26T18:25:45.531Z,11.10
2022-08-26T18:28:15.850Z,10.10
2022-08-26T18:30:43.665Z,9.40
2022-08-26T18:33:11.720Z,9.20
2022-08-26T18:35:44.191Z,9.20
2022-08-26T18:38:14.028Z,9.10
2022-08-26T18:40:43.636Z,8.40
2022-08-26T18:43:22.891Z,9.90
2022-08-26T18:46:02.257Z,8.50
2022-08-26T18:48:51.215Z,7.70
2022-08-26T18:51:26.365Z,7.80
2022-08-26T18:53:57.009Z,8.10
2022-08-26T18:56:24.448Z,8.30
2022-08-26T18:58:55.891Z,8.50
2022-08-26T19:01:27.385Z,8.90
2022-08-26T19:03:59.560Z,8.50
2022-08-26T19:06:28.757Z,8.30
2022-08-26T19:08:59.813Z,7.90
2022-08-26T19:11:32.501Z,8.20
2022-08-26T19:14:08.366Z,7.80
2022-08-26T19:16:37.573Z,8.00
2022-08-26T19:19:05.315Z,7.50
2022-08-26T19:21:33.278Z,7.50
2022-08-26T19:24:02.606Z,7.80
2022-08-26T19:26:36.623Z,7.70
2022-08-26T19:29:07.023Z,7.30
2022-08-26T19:31:34.518Z,6.30
2022-08-26T19:34:02.012Z,6.90
2022-08-26T19:36:29.445Z,7.10
2022-08-26T19:38:56.860Z,6.90
2022-08-26T19:41:36.494Z,7.50
2022-08-26T19:44:36.213Z,6.90
2022-08-26T19:47:03.849Z,7.90
2022-08-26T19:49:36.060Z,7.60
2022-08-26T19:52:03.873Z,7.50
2022-08-26T19:54:34.699Z,7.40
2022-08-26T19:57:05.683Z,6.90
2022-08-26T19:59:33.308Z,7.60
2022-08-26T20:02:08.531Z,5.80
2022-08-26T20:04:38.329Z,6.40
2022-08-26T20:07:05.759Z,6.60
2022-08-26T20:09:34.134Z,7.70
2022-08-26T20:12:02.518Z,7.30
2022-08-26T20:14:30.052Z,6.70
2022-08-26T20:16:57.451Z,6.80
2022-08-26T20:19:43.035Z,6.70
2022-08-26T20:22:12.959Z,6.50
2022-08-26T20:24:43.235Z,6.80
2022-08-26T20:27:19.853Z,6.50
2022-08-26T20:29:47.505Z,6.70
2022-08-26T20:32:14.893Z,7.10
2022-08-26T20:34:42.768Z,5.90
2022-08-26T20:37:11.308Z,6.80
2022-08-26T20:39:41.718Z,7.20
2022-08-26T20:42:19.996Z,6.30
2022-08-26T20:44:55.011Z,6.70
2022-08-26T20:47:23.220Z,6.30
2022-08-26T20:50:03.972Z,6.40
2022-08-26T20:52:31.507Z,7.10
2022-08-26T20:54:59.042Z,7.20
2022-08-26T20:57:26.582Z,6.90
2022-08-26T20:59:54.805Z,6.50
2022-08-26T21:02:22.039Z,6.70
2022-08-26T21:04:49.246Z,5.00
2022-08-26T21:07:16.618Z,5.60
2022-08-26T21:09:48.541Z,6.00
2022-08-26T21:12:18.815Z,6.30
2022-08-26T21:14:49.538Z,6.70
2022-08-26T21:17:17.007Z,6.40
2022-08-26T21:19:44.535Z,6.30
2022-08-26T21:22:15.016Z,6.60
2022-08-26T21:24:42.455Z,6.50
2022-08-26T21:27:12.181Z,6.90
2022-08-26T21:29:39.717Z,6.50
2022-08-26T21:32:09.672Z,6.20
2022-08-26T21:34:40.132Z,6.40
2022-08-26T21:37:16.902Z,6.60
2022-08-26T21:39:44.513Z,6.60
2022-08-26T21:42:11.724Z,6.10
2022-08-26T21:44:43.520Z,6.60
2022-08-26T21:47:17.433Z,6.80
2022-08-26T21:49:45.052Z,6.90
2022-08-26T21:52:26.947Z,6.40
2022-08-26T21:55:04.809Z,6.50
2022-08-26T21:57:38.915Z,5.40
2022-08-26T22:00:08.787Z,6.00
2022-08-26T22:02:37.238Z,6.10
2022-08-26T22:06:10.544Z,6.40
2022-08-26T22:08:38.608Z,6.00
2022-08-26T22:11:09.612Z,6.80
2022-08-26T22:16:09.813Z,7.90
2022-08-26T22:21:11.295Z,7.80
2022-08-26T22:23:39.078Z,7.60
2022-08-26T22:26:07.574Z,7.50
2022-08-26T22:28:38.414Z,8.80
2022-08-26T22:31:12.304Z,8.30
2022-08-26T22:33:40.714Z,9.00
2022-08-26T22:36:08.888Z,7.80
2022-08-26T22:38:36.865Z,8.40
2022-08-26T22:41:08.219Z,8.40
2022-08-26T22:43:36.238Z,7.70
2022-08-26T22:46:04.277Z,7.80
2022-08-26T22:48:31.809Z,6.10
2022-08-26T22:51:02.152Z,6.30
2022-08-26T22:53:29.599Z,6.50
2022-08-26T22:56:00.139Z,6.70
2022-08-26T22:58:32.099Z,6.40
2022-08-26T23:01:02.673Z,6.60
2022-08-26T23:03:30.630Z,6.90
2022-08-26T23:05:58.773Z,7.40
2022-08-26T23:08:27.481Z,7.40
2022-08-26T23:10:54.752Z,7.10
2022-08-26T23:13:22.312Z,7.40
2022-08-26T23:15:50.072Z,6.50
2022-08-26T23:18:17.388Z,7.00
2022-08-26T23:20:44.934Z,7.50
2022-08-26T23:23:15.254Z,6.90
2022-08-26T23:25:42.903Z,7.30
2022-08-26T23:28:10.161Z,6.70
2022-08-26T23:30:38.571Z,6.70
2022-08-26T23:33:06.104Z,6.00
2022-08-26T23:35:33.555Z,5.90
2022-08-26T23:38:02.763Z,6.30
2022-08-26T23:40:33.796Z,6.10
2022-08-26T23:43:05.567Z,6.30
2022-08-26T23:45:33.607Z,6.30
2022-08-26T23:48:01.002Z,6.20
2022-08-26T23:50:48.591Z,6.00
2022-08-26T23:53:22.674Z,5.90
2022-08-26T23:55:51.406Z,6.10
2022-08-26T23:58:19.550Z,6.30
